Time;durP1;ratioP1;P1;durP2;ratioP2;P2;SDS_P1;SDS_P2;PMS_P1;PMS_P2;Temp;Humidity;BMP_temperature;BMP_pressure;BME280_temperature;BME280_humidity;BME280_pressure;Samples;Min_cycle;Max_cycle;Signal;HPM_P1;HPM_P2
2021/08/11 00:00:57;;;;;;;9.52;6.07;;;15.90;99.90;;;;;;4995167;28;20033;-73
2021/08/11 00:03:23;;;;;;;8.20;5.32;;;15.80;99.90;;;;;;4994061;28;20026;-72
2021/08/11 00:05:48;;;;;;;8.20;6.50;;;15.80;99.90;;;;;;4994972;28;20056;-72
2021/08/11 00:08:14;;;;;;;8.30;5.75;;;15.80;99.90;;;;;;4995248;28;20473;-72
2021/08/11 00:10:39;;;;;;;7.70;5.60;;;15.80;99.90;;;;;;4995123;28;20022;-72
2021/08/11 00:13:05;;;;;;;8.30;5.43;;;15.80;99.90;;;;;;4993051;28;20034;-72
2021/08/11 00:15:31;;;;;;;8.20;5.55;;;15.80;99.90;;;;;;4994669;28;20050;-72
2021/08/11 00:17:56;;;;;;;7.18;4.97;;;15.70;99.90;;;;;;4995517;28;20053;-72
2021/08/11 00:20:24;;;;;;;11.00;6.63;;;15.80;99.90;;;;;;4994958;28;20058;-72
2021/08/11 00:22:50;;;;;;;9.20;6.13;;;15.70;99.90;;;;;;5001956;28;20369;-72
2021/08/11 00:25:15;;;;;;;9.25;5.93;;;15.80;99.90;;;;;;5014241;28;20041;-72
2021/08/11 00:27:41;;;;;;;8.90;5.97;;;15.70;99.90;;;;;;5014525;28;20476;-72
2021/08/11 00:30:07;;;;;;;8.48;5.45;;;15.80;99.90;;;;;;5014321;28;20081;-72
2021/08/11 00:32:32;;;;;;;8.40;5.38;;;16.00;99.90;;;;;;5014273;28;20563;-72
2021/08/11 00:34:58;;;;;;;9.80;6.15;;;15.90;99.90;;;;;;5014158;28;20104;-72
2021/08/11 00:37:23;;;;;;;8.48;6.07;;;15.60;99.90;;;;;;5014194;28;20033;-72
2021/08/11 00:39:49;;;;;;;11.35;5.90;;;15.50;99.90;;;;;;5014323;28;20392;-72
2021/08/11 00:42:15;;;;;;;8.48;5.70;;;15.40;99.90;;;;;;5014074;28;20030;-72
2021/08/11 00:44:40;;;;;;;10.63;5.85;;;15.40;99.90;;;;;;5013883;28;20033;-72
2021/08/11 00:47:07;;;;;;;8.38;5.82;;;15.40;99.90;;;;;;5013983;28;20038;-72
2021/08/11 00:49:32;;;;;;;7.90;5.75;;;15.50;99.90;;;;;;5014027;28;20536;-72
2021/08/11 00:51:58;;;;;;;9.88;5.97;;;15.50;99.90;;;;;;5012666;28;20041;-72
2021/08/11 00:54:24;;;;;;;9.65;5.95;;;15.60;99.90;;;;;;5012486;28;20488;-72
2021/08/11 00:56:52;;;;;;;7.38;5.70;;;15.70;99.90;;;;;;5013890;28;20029;-72
2021/08/11 00:59:19;;;;;;;8.25;5.80;;;15.70;99.90;;;;;;5013747;28;20030;-72
2021/08/11 01:01:50;;;;;;;7.00;5.50;;;15.80;99.90;;;;;;5013750;28;20442;-72
2021/08/11 01:04:17;;;;;;;10.55;6.00;;;15.80;99.90;;;;;;5013721;28;20025;-72
2021/08/11 01:06:43;;;;;;;9.77;6.00;;;15.60;99.90;;;;;;5013736;28;20038;-72
2021/08/11 01:09:13;;;;;;;10.00;5.90;;;15.30;99.90;;;;;;5013688;28;20028;-72
2021/08/11 01:11:42;;;;;;;7.63;6.18;;;15.40;99.90;;;;;;5013921;28;20022;-72
2021/08/11 01:14:08;;;;;;;7.88;5.22;;;15.20;99.90;;;;;;5013542;28;20053;-72
2021/08/11 01:16:33;;;;;;;8.05;5.72;;;15.30;99.90;;;;;;5004922;28;20027;-72
2021/08/11 01:18:59;;;;;;;7.82;5.07;;;15.20;99.90;;;;;;4993853;28;20037;-72
2021/08/11 01:21:32;;;;;;;7.45;5.47;;;15.20;99.90;;;;;;4993674;28;20523;-72
2021/08/11 01:24:04;;;;;;;8.13;5.38;;;15.20;99.90;;;;;;4992520;28;20567;-72
2021/08/11 01:26:57;;;;;;;8.30;5.35;;;15.20;99.90;;;;;;4993801;28;20133;-72
2021/08/11 01:29:44;;;;;;;8.07;5.85;;;15.10;99.90;;;;;;4993831;28;20568;-72
2021/08/11 01:32:34;;;;;;;7.18;5.57;;;15.00;99.90;;;;;;4993658;28;20069;-72
2021/08/11 01:35:02;;;;;;;8.68;6.15;;;14.90;99.90;;;;;;5007496;28;20037;-72
2021/08/11 01:37:30;;;;;;;6.88;5.80;;;15.00;99.90;;;;;;5013245;28;20117;-72
2021/08/11 01:39:58;;;;;;;12.43;5.95;;;14.90;99.90;;;;;;5011776;28;20026;-72
2021/08/11 01:42:39;;;;;;;10.88;7.05;;;14.90;99.90;;;;;;5013059;28;20091;-72
2021/08/11 01:45:11;;;;;;;10.90;7.40;;;14.70;99.90;;;;;;5012674;28;20100;-72
2021/08/11 01:47:43;;;;;;;12.07;6.95;;;13.90;99.90;;;;;;5013000;28;20113;-72
2021/08/11 01:50:12;;;;;;;13.82;7.82;;;13.80;99.90;;;;;;5013143;28;20036;-72
2021/08/11 01:52:40;;;;;;;10.25;7.38;;;13.80;99.90;;;;;;5012920;28;20025;-72
2021/08/11 01:55:08;;;;;;;12.38;7.18;;;13.80;99.90;;;;;;5012743;28;20061;-72
2021/08/11 01:57:34;;;;;;;10.88;7.15;;;13.80;99.90;;;;;;5012913;28;20140;-72
2021/08/11 02:00:01;;;;;;;9.93;6.97;;;13.90;99.90;;;;;;5011679;28;20143;-72
2021/08/11 02:02:26;;;;;;;10.23;6.55;;;14.00;99.90;;;;;;5012687;28;20033;-72
2021/08/11 02:04:52;;;;;;;9.88;7.53;;;14.20;99.90;;;;;;5011295;28;20578;-72
2021/08/11 02:07:18;;;;;;;10.05;6.75;;;14.40;99.90;;;;;;5012585;28;20511;-72
2021/08/11 02:09:44;;;;;;;11.25;6.75;;;14.40;99.90;;;;;;5012637;28;20050;-73
2021/08/11 02:12:09;;;;;;;8.55;7.00;;;14.50;99.90;;;;;;5012451;28;20468;-72
2021/08/11 02:14:38;;;;;;;11.70;7.13;;;14.40;99.90;;;;;;5006438;28;20029;-72
2021/08/11 02:17:03;;;;;;;9.48;6.90;;;14.30;99.90;;;;;;4992895;28;20380;-72
2021/08/11 02:19:29;;;;;;;9.52;7.07;;;14.20;99.90;;;;;;4992672;28;20101;-72
2021/08/11 02:21:54;;;;;;;11.30;7.13;;;14.40;99.90;;;;;;4992797;28;20109;-72
2021/08/11 02:24:20;;;;;;;12.27;7.47;;;14.60;99.90;;;;;;4992613;28;20030;-72
2021/08/11 02:27:13;;;;;;;7.65;6.53;;;14.70;99.90;;;;;;4992543;28;20508;-72
2021/08/11 02:29:55;;;;;;;8.70;6.15;;;14.70;99.90;;;;;;4992121;28;20030;-71
2021/08/11 02:32:39;;;;;;;9.55;5.95;;;14.60;99.90;;;;;;4992560;28;20108;-72
2021/08/11 02:35:15;;;;;;;9.73;6.80;;;14.60;99.90;;;;;;4991929;28;20030;-72
2021/08/11 02:37:55;;;;;;;8.57;6.00;;;14.60;99.90;;;;;;4992619;28;20038;-72
2021/08/11 02:40:35;;;;;;;10.48;6.53;;;14.70;99.90;;;;;;4992782;28;20027;-72
2021/08/11 02:43:10;;;;;;;10.45;6.70;;;14.90;99.90;;;;;;4992584;28;20026;-72
2021/08/11 02:45:39;;;;;;;9.77;6.80;;;14.90;99.90;;;;;;4992108;28;20026;-72
2021/08/11 02:48:06;;;;;;;9.25;7.03;;;15.00;99.90;;;;;;4991146;28;20625;-72
2021/08/11 02:50:33;;;;;;;9.75;6.70;;;15.10;99.90;;;;;;4992247;28;20096;-72
2021/08/11 02:53:00;;;;;;;9.60;6.75;;;15.10;99.90;;;;;;4991028;28;20404;-72
2021/08/11 02:55:26;;;;;;;11.77;6.55;;;15.20;99.90;;;;;;4992131;28;20477;-72
2021/08/11 02:57:52;;;;;;;10.63;7.13;;;15.20;99.90;;;;;;4992154;28;20041;-72
2021/08/11 03:00:19;;;;;;;10.60;6.72;;;15.10;99.90;;;;;;4992405;28;20527;-72
2021/08/11 03:02:45;;;;;;;9.68;6.95;;;15.10;99.90;;;;;;4992191;28;20025;-72
2021/08/11 03:05:11;;;;;;;11.80;7.15;;;15.10;99.90;;;;;;4992192;28;20031;-72
2021/08/11 03:07:37;;;;;;;11.40;7.00;;;15.10;99.90;;;;;;4992053;28;20395;-72
2021/08/11 03:10:04;;;;;;;9.27;7.05;;;15.00;99.90;;;;;;4992703;28;20022;-72
2021/08/11 03:12:30;;;;;;;8.63;7.00;;;14.90;99.90;;;;;;4991944;28;20092;-72
2021/08/11 03:14:56;;;;;;;10.88;7.90;;;14.50;99.90;;;;;;4992040;28;20053;-72
2021/08/11 03:17:25;;;;;;;11.20;8.00;;;14.40;99.90;;;;;;4992046;28;20030;-72
2021/08/11 03:19:50;;;;;;;13.75;7.90;;;14.00;99.90;;;;;;4992385;28;20539;-72
2021/08/11 03:22:16;;;;;;;13.70;8.20;;;14.10;99.90;;;;;;4992161;28;20321;-72
2021/08/11 03:24:41;;;;;;;9.73;7.30;;;14.20;99.90;;;;;;4991973;28;20030;-72
2021/08/11 03:27:07;;;;;;;9.52;6.88;;;14.30;99.90;;;;;;4990601;28;20037;-72
2021/08/11 03:29:33;;;;;;;10.75;7.72;;;14.40;99.90;;;;;;4992094;28;20030;-72
2021/08/11 03:31:58;;;;;;;9.63;6.53;;;14.50;99.90;;;;;;4991925;28;20107;-72
2021/08/11 03:34:24;;;;;;;9.15;7.78;;;14.50;99.90;;;;;;4991773;28;20018;-72
2021/08/11 03:36:49;;;;;;;11.48;8.02;;;14.40;99.90;;;;;;4990698;28;20031;-72
2021/08/11 03:39:15;;;;;;;12.10;7.60;;;14.30;99.90;;;;;;4992028;28;20560;-72
2021/08/11 03:41:40;;;;;;;11.73;7.75;;;14.10;99.90;;;;;;4991758;28;20034;-72
2021/08/11 03:44:06;;;;;;;11.77;7.82;;;14.00;99.90;;;;;;4991997;28;20022;-72
2021/08/11 03:46:32;;;;;;;12.15;7.65;;;13.90;99.90;;;;;;4993711;28;20489;-72
2021/08/11 03:48:58;;;;;;;10.23;7.97;;;13.90;99.90;;;;;;5014957;28;20021;-72
2021/08/11 03:51:24;;;;;;;9.50;6.70;;;13.90;99.90;;;;;;5014966;28;20042;-72
2021/08/11 03:53:49;;;;;;;11.90;7.80;;;14.10;99.90;;;;;;5015208;28;20435;-72
2021/08/11 03:56:15;;;;;;;10.00;6.80;;;14.10;99.90;;;;;;5013582;28;20589;-72
2021/08/11 03:58:40;;;;;;;9.52;7.13;;;14.20;99.90;;;;;;5015080;28;20095;-72
2021/08/11 04:01:06;;;;;;;10.55;7.00;;;14.30;99.90;;;;;;5014894;28;20030;-72
2021/08/11 04:03:32;;;;;;;10.18;6.85;;;14.30;99.90;;;;;;5014931;28;20046;-72
2021/08/11 04:05:57;;;;;;;9.38;7.15;;;14.30;99.90;;;;;;5014692;28;20096;-72
2021/08/11 04:08:23;;;;;;;11.75;7.72;;;14.30;99.90;;;;;;5013594;28;20093;-72
2021/08/11 04:10:49;;;;;;;9.70;6.57;;;14.30;99.90;;;;;;5014544;28;20021;-72
2021/08/11 04:13:16;;;;;;;9.27;5.95;;;14.40;99.90;;;;;;5014695;28;20029;-72
2021/08/11 04:15:45;;;;;;;9.85;6.57;;;14.30;99.90;;;;;;4999624;28;20077;-72
2021/08/11 04:18:11;;;;;;;10.10;6.20;;;14.50;99.90;;;;;;4995288;28;20381;-72
2021/08/11 04:20:38;;;;;;;9.95;6.55;;;14.60;99.90;;;;;;4995018;28;20026;-72
2021/08/11 04:23:05;;;;;;;11.80;6.90;;;14.60;99.90;;;;;;4994955;28;20034;-72
2021/08/11 04:25:30;;;;;;;10.70;6.65;;;14.40;99.90;;;;;;4993230;28;20022;-72
2021/08/11 04:27:57;;;;;;;10.95;6.65;;;14.50;99.90;;;;;;4994946;28;20018;-72
2021/08/11 04:30:22;;;;;;;7.95;6.20;;;14.40;99.90;;;;;;4994720;28;20422;-72
2021/08/11 04:32:48;;;;;;;8.77;6.00;;;14.40;99.90;;;;;;4993640;28;20393;-72
2021/08/11 04:35:13;;;;;;;10.93;6.35;;;14.50;99.90;;;;;;4994673;28;20023;-72
2021/08/11 04:37:40;;;;;;;9.90;5.95;;;14.50;99.90;;;;;;4994716;28;20030;-72
2021/08/11 04:40:08;;;;;;;10.20;6.50;;;14.50;99.90;;;;;;4994491;28;20026;-72
2021/08/11 04:42:33;;;;;;;8.82;6.00;;;14.50;99.90;;;;;;4994606;28;20114;-72
2021/08/11 04:45:00;;;;;;;9.35;7.03;;;14.60;99.90;;;;;;4994248;28;20105;-72
2021/08/11 04:47:25;;;;;;;10.57;6.70;;;14.60;99.90;;;;;;4994527;28;20022;-72
2021/08/11 04:49:51;;;;;;;10.40;6.82;;;14.80;99.90;;;;;;4994494;28;20080;-72
2021/08/11 04:52:17;;;;;;;9.50;6.78;;;14.90;99.90;;;;;;4994398;28;20037;-72
2021/08/11 04:54:42;;;;;;;8.98;6.40;;;14.90;99.90;;;;;;4992843;28;20037;-72
2021/08/11 04:57:08;;;;;;;10.20;6.40;;;15.00;99.90;;;;;;4994650;28;20057;-72
2021/08/11 04:59:33;;;;;;;11.55;7.07;;;15.00;99.90;;;;;;4994067;28;20069;-72
2021/08/11 05:01:59;;;;;;;10.70;6.72;;;15.10;99.90;;;;;;5001734;28;20072;-72
2021/08/11 05:04:26;;;;;;;9.02;6.40;;;15.10;99.90;;;;;;5013615;28;20063;-72
2021/08/11 05:06:51;;;;;;;8.05;6.55;;;15.10;99.90;;;;;;5013679;28;20029;-72
2021/08/11 05:09:17;;;;;;;9.95;6.38;;;15.10;99.90;;;;;;5013564;28;20026;-72
2021/08/11 05:11:42;;;;;;;9.10;6.82;;;15.10;99.90;;;;;;5013567;28;20068;-72
2021/08/11 05:14:08;;;;;;;10.82;6.85;;;15.10;99.90;;;;;;5011341;28;20053;-72
2021/08/11 05:16:33;;;;;;;11.35;6.53;;;15.20;99.90;;;;;;4993656;28;20053;-72
2021/08/11 05:18:59;;;;;;;10.57;6.82;;;15.20;99.90;;;;;;4994488;28;20031;-72
2021/08/11 05:21:25;;;;;;;9.30;6.57;;;15.10;99.90;;;;;;4993803;28;20113;-72
2021/08/11 05:23:51;;;;;;;9.93;7.22;;;15.00;99.90;;;;;;4993726;28;20030;-72
2021/08/11 05:26:17;;;;;;;9.85;7.07;;;15.00;99.90;;;;;;4993628;28;20392;-72
2021/08/11 05:28:44;;;;;;;9.32;7.35;;;15.10;99.90;;;;;;4993624;28;20037;-72
2021/08/11 05:31:09;;;;;;;9.73;7.35;;;15.10;99.90;;;;;;4993643;28;20030;-72
2021/08/11 05:33:35;;;;;;;10.13;7.53;;;15.40;99.90;;;;;;4993572;28;20105;-72
2021/08/11 05:36:00;;;;;;;9.20;6.90;;;15.40;99.90;;;;;;4993416;28;20088;-72
2021/08/11 05:38:27;;;;;;;9.88;6.72;;;15.50;99.90;;;;;;4993436;28;20022;-72
2021/08/11 05:40:53;;;;;;;9.20;7.30;;;15.70;99.90;;;;;;4993447;28;20113;-72
2021/08/11 05:43:18;;;;;;;10.05;7.25;;;15.80;99.90;;;;;;4993438;28;20049;-72
2021/08/11 05:45:44;;;;;;;9.75;6.63;;;16.00;99.90;;;;;;4993185;28;20033;-72
2021/08/11 05:48:10;;;;;;;9.68;7.10;;;16.20;99.90;;;;;;4993394;28;20054;-72
2021/08/11 05:50:36;;;;;;;11.45;6.95;;;16.20;99.90;;;;;;4993214;28;20088;-73
2021/08/11 05:53:02;;;;;;;12.15;7.25;;;16.30;99.90;;;;;;4993206;28;20046;-72
2021/08/11 05:55:28;;;;;;;12.55;6.35;;;16.30;99.90;;;;;;5001655;28;20014;-72
2021/08/11 05:57:54;;;;;;;11.93;6.78;;;16.30;99.90;;;;;;5011594;28;20025;-72
2021/08/11 06:00:20;;;;;;;10.15;6.60;;;16.50;99.90;;;;;;5012769;28;20448;-72
2021/08/11 06:02:45;;;;;;;7.78;6.90;;;16.60;99.90;;;;;;5012783;28;20105;-72
2021/08/11 06:05:12;;;;;;;8.38;6.47;;;16.70;99.90;;;;;;5004446;28;20101;-72
2021/08/11 06:07:41;;;;;;;12.27;6.88;;;16.70;99.90;;;;;;4991494;28;20041;-72
2021/08/11 06:10:07;;;;;;;10.15;6.78;;;16.80;99.90;;;;;;4992337;28;20022;-72
2021/08/11 06:12:33;;;;;;;8.10;7.07;;;17.00;99.90;;;;;;4992767;28;20084;-72
2021/08/11 06:14:59;;;;;;;12.55;6.85;;;17.20;99.90;;;;;;4992725;28;20019;-72
2021/08/11 06:17:24;;;;;;;11.02;6.72;;;17.20;99.90;;;;;;5007073;28;20037;-72
2021/08/11 06:19:50;;;;;;;9.75;6.30;;;17.30;99.90;;;;;;5012332;28;20499;-72
2021/08/11 06:22:16;;;;;;;7.90;6.65;;;17.40;99.90;;;;;;4999542;28;20038;-72
2021/08/11 06:24:43;;;;;;;10.63;7.07;;;17.40;99.90;;;;;;4991266;28;20034;-72
2021/08/11 06:27:08;;;;;;;10.18;6.28;;;17.50;99.90;;;;;;4992560;28;20030;-72
2021/08/11 06:29:34;;;;;;;9.52;6.78;;;17.60;99.90;;;;;;4992664;28;20031;-72
2021/08/11 06:32:01;;;;;;;7.43;5.97;;;17.70;99.90;;;;;;4992602;28;20026;-73
2021/08/11 06:34:27;;;;;;;9.25;6.50;;;17.80;99.90;;;;;;4992470;28;20067;-72
2021/08/11 06:36:53;;;;;;;10.57;6.28;;;17.80;99.90;;;;;;4994816;28;20519;-72
2021/08/11 06:39:19;;;;;;;10.60;6.40;;;17.70;99.90;;;;;;5012181;28;20536;-72
2021/08/11 06:41:45;;;;;;;8.60;6.20;;;17.80;99.90;;;;;;5012144;28;20109;-72
2021/08/11 06:44:10;;;;;;;7.15;6.43;;;18.00;99.90;;;;;;5012078;28;20378;-72
2021/08/11 06:46:36;;;;;;;12.73;7.10;;;18.10;99.90;;;;;;5012220;28;20029;-72
2021/08/11 06:49:01;;;;;;;8.20;6.18;;;18.10;99.90;;;;;;5011987;28;20320;-72
2021/08/11 06:51:27;;;;;;;11.85;6.75;;;18.10;99.90;;;;;;5012084;28;20022;-72
2021/08/11 06:53:52;;;;;;;7.40;5.80;;;18.20;99.90;;;;;;5010700;28;20080;-72
2021/08/11 06:56:18;;;;;;;9.30;6.07;;;18.40;99.90;;;;;;5011792;28;20032;-72
2021/08/11 06:58:43;;;;;;;7.93;5.95;;;18.30;99.90;;;;;;5011838;28;20155;-72
2021/08/11 07:01:09;;;;;;;8.85;5.95;;;18.40;99.90;;;;;;5010645;28;20104;-72
2021/08/11 07:03:34;;;;;;;8.90;6.22;;;18.40;99.90;;;;;;4992300;28;20105;-72
2021/08/11 07:06:01;;;;;;;6.82;5.53;;;18.40;99.90;;;;;;4992411;28;20440;-72
2021/08/11 07:08:26;;;;;;;7.75;5.85;;;18.40;99.90;;;;;;4992439;28;20556;-72
2021/08/11 07:10:52;;;;;;;8.13;5.07;;;18.40;99.90;;;;;;4992209;28;20109;-72
2021/08/11 07:13:19;;;;;;;9.07;5.10;;;18.60;99.90;;;;;;4992237;28;20027;-72
2021/08/11 07:15:44;;;;;;;7.65;5.40;;;18.60;99.90;;;;;;4991951;28;20031;-73
2021/08/11 07:18:15;;;;;;;6.63;5.47;;;18.60;99.90;;;;;;4992222;28;20030;-72
2021/08/11 07:20:40;;;;;;;10.00;5.60;;;18.70;99.90;;;;;;4990892;28;20022;-72
2021/08/11 07:23:06;;;;;;;7.85;5.68;;;18.70;99.90;;;;;;4995905;28;20544;-73
2021/08/11 07:25:32;;;;;;;7.13;5.38;;;18.90;99.90;;;;;;4995765;28;20037;-72
2021/08/11 07:27:57;;;;;;;8.05;5.38;;;19.00;99.90;;;;;;4996465;28;20026;-72
2021/08/11 07:30:23;;;;;;;8.05;5.60;;;19.00;99.90;;;;;;4994658;28;20477;-73
2021/08/11 07:32:48;;;;;;;6.25;4.80;;;18.90;99.90;;;;;;4995953;28;20429;-72
2021/08/11 07:35:15;;;;;;;9.23;5.53;;;19.00;99.90;;;;;;4995680;28;20064;-72
2021/08/11 07:37:58;;;;;;;8.10;5.15;;;19.10;99.90;;;;;;4994679;28;20061;-72
2021/08/11 07:40:27;;;;;;;8.85;5.53;;;19.20;99.90;;;;;;4995981;28;20030;-72
2021/08/11 07:42:53;;;;;;;6.30;5.15;;;19.20;99.90;;;;;;4995763;28;20101;-72
2021/08/11 07:45:19;;;;;;;6.55;5.07;;;19.30;99.90;;;;;;4995441;28;20023;-72
2021/08/11 07:47:52;;;;;;;10.50;4.28;;;19.40;99.90;;;;;;4995561;28;20027;-72
2021/08/11 07:50:18;;;;;;;6.38;4.93;;;19.50;99.90;;;;;;4995440;28;20121;-72
2021/08/11 07:52:43;;;;;;;6.78;4.20;;;19.60;99.90;;;;;;4994363;28;20019;-72
2021/08/11 07:55:09;;;;;;;6.47;4.47;;;19.60;99.90;;;;;;4995587;28;20073;-72
2021/08/11 07:57:37;;;;;;;6.22;4.35;;;19.60;99.90;;;;;;4996265;28;20131;-72
2021/08/11 08:00:03;;;;;;;4.57;3.60;;;19.50;99.90;;;;;;4996019;28;20035;-73
2021/08/11 08:02:29;;;;;;;5.00;3.40;;;19.70;99.90;;;;;;4995297;28;20105;-72
2021/08/11 08:04:54;;;;;;;5.60;3.63;;;19.80;99.90;;;;;;4999027;28;20121;-72
2021/08/11 08:07:20;;;;;;;4.72;4.20;;;19.90;99.90;;;;;;5014961;28;20029;-72
2021/08/11 08:09:45;;;;;;;5.65;4.15;;;19.90;99.90;;;;;;5013690;28;20435;-72
2021/08/11 08:12:10;;;;;;;7.72;4.65;;;19.90;99.90;;;;;;5014835;28;20037;-72
2021/08/11 08:14:36;;;;;;;6.28;4.30;;;20.00;99.90;;;;;;5008612;28;20046;-73
2021/08/11 08:17:02;;;;;;;4.50;3.50;;;20.00;99.90;;;;;;4995131;28;20109;-73
2021/08/11 08:19:27;;;;;;;4.70;3.70;;;20.20;99.90;;;;;;4995346;28;20050;-73
2021/08/11 08:21:54;;;;;;;5.63;3.63;;;20.10;99.90;;;;;;4994847;28;20512;-72
2021/08/11 08:24:21;;;;;;;7.70;3.65;;;20.10;99.90;;;;;;4993560;28;20022;-72
2021/08/11 08:26:47;;;;;;;4.40;3.70;;;20.30;99.90;;;;;;4994880;28;20022;-72
2021/08/11 08:29:12;;;;;;;5.53;3.80;;;20.30;99.90;;;;;;4994693;28;20553;-72
2021/08/11 08:31:38;;;;;;;6.15;4.03;;;20.50;99.90;;;;;;4994881;28;20053;-73
2021/08/11 08:34:03;;;;;;;4.72;3.55;;;20.60;99.90;;;;;;4994085;28;20022;-72
2021/08/11 08:36:30;;;;;;;6.43;4.00;;;20.80;99.90;;;;;;4994692;28;20492;-72
2021/08/11 08:38:56;;;;;;;5.22;4.20;;;20.90;99.90;;;;;;4994646;28;20396;-72
2021/08/11 08:41:22;;;;;;;6.93;4.40;;;20.70;99.90;;;;;;4994631;28;20030;-72
2021/08/11 08:43:47;;;;;;;8.57;4.43;;;20.60;99.90;;;;;;4994532;28;20100;-72
2021/08/11 08:46:16;;;;;;;6.55;4.03;;;20.90;99.90;;;;;;4994353;28;20148;-72
2021/08/11 08:48:41;;;;;;;6.72;3.75;;;21.00;99.90;;;;;;4994547;28;20436;-72
2021/08/11 08:51:11;;;;;;;7.03;3.80;;;21.00;99.90;;;;;;4994434;28;20034;-73
2021/08/11 08:53:38;;;;;;;6.65;4.20;;;21.20;99.90;;;;;;4994368;28;20061;-73
2021/08/11 08:56:05;;;;;;;12.80;4.15;;;21.30;99.90;;;;;;4994212;28;20524;-72
2021/08/11 08:58:31;;;;;;;3.72;3.22;;;21.40;99.90;;;;;;4994271;28;20030;-73
2021/08/11 09:00:56;;;;;;;5.28;3.75;;;21.50;99.90;;;;;;4994233;28;20030;-72
2021/08/11 09:03:22;;;;;;;6.68;4.47;;;21.60;99.90;;;;;;5000236;28;20504;-72
2021/08/11 09:05:47;;;;;;;5.32;3.95;;;21.20;99.90;;;;;;5013563;28;20040;-72
2021/08/11 09:08:13;;;;;;;5.85;4.05;;;21.20;99.90;;;;;;5013813;28;20061;-73
2021/08/11 09:10:40;;;;;;;5.90;4.22;;;21.40;99.90;;;;;;5001938;28;20058;-73
2021/08/11 09:13:22;;;;;;;4.82;3.45;;;21.50;99.90;;;;;;4992876;28;20041;-73
2021/08/11 09:15:53;;;;;;;5.25;3.80;;;21.60;99.90;;;;;;4993718;28;20109;-73
2021/08/11 09:18:29;;;;;;;5.40;3.53;;;21.60;99.90;;;;;;4994011;28;20105;-73
2021/08/11 09:21:03;;;;;;;3.28;2.92;;;21.80;99.90;;;;;;4993838;28;20077;-72
2021/08/11 09:23:44;;;;;;;7.18;3.30;;;21.90;99.90;;;;;;4993916;28;20031;-73
2021/08/11 09:26:12;;;;;;;5.93;4.07;;;21.80;99.90;;;;;;4992410;28;20022;-73
2021/08/11 09:28:40;;;;;;;4.72;4.15;;;21.80;99.90;;;;;;4993965;28;20045;-72
2021/08/11 09:31:23;;;;;;;5.43;3.97;;;22.00;99.90;;;;;;4993906;28;20029;-73
2021/08/11 09:34:03;;;;;;;6.32;3.78;;;21.90;99.90;;;;;;4992326;28;20025;-72
2021/08/11 09:36:41;;;;;;;5.03;4.03;;;22.00;99.90;;;;;;4993442;28;20026;-73
2021/08/11 09:39:07;;;;;;;5.25;3.63;;;21.90;99.90;;;;;;4993606;28;20022;-72
2021/08/11 09:41:33;;;;;;;4.85;3.97;;;22.20;99.90;;;;;;4993440;28;20077;-73
2021/08/11 09:44:17;;;;;;;4.43;3.95;;;22.30;99.90;;;;;;4993417;28;20483;-73
2021/08/11 09:46:42;;;;;;;6.00;4.03;;;22.20;99.90;;;;;;4992786;28;20026;-73
2021/08/11 09:49:13;;;;;;;5.18;3.60;;;22.30;99.90;;;;;;4993332;28;20037;-73
2021/08/11 09:51:59;;;;;;;4.63;3.72;;;22.30;99.90;;;;;;4993328;28;20019;-73
2021/08/11 09:54:26;;;;;;;6.45;3.92;;;22.40;99.90;;;;;;4992948;28;20057;-73
2021/08/11 09:56:52;;;;;;;5.40;3.75;;;22.40;99.90;;;;;;4992060;28;20429;-73
2021/08/11 09:59:17;;;;;;;4.25;3.60;;;22.60;99.90;;;;;;4992002;28;20052;-72
2021/08/11 10:01:43;;;;;;;8.15;4.05;;;22.30;99.90;;;;;;4993093;28;20039;-73
2021/08/11 10:04:10;;;;;;;6.38;4.35;;;22.40;99.90;;;;;;4991917;28;20026;-73
2021/08/11 10:06:41;;;;;;;4.60;3.97;;;22.20;99.90;;;;;;4992826;28;20049;-73
2021/08/11 10:09:25;;;;;;;4.22;3.83;;;22.10;99.90;;;;;;4992757;28;20018;-73
2021/08/11 10:11:56;;;;;;;4.72;3.72;;;22.80;99.90;;;;;;4991716;28;20497;-73
2021/08/11 10:14:23;;;;;;;5.57;4.10;;;22.90;99.90;;;;;;4992670;28;20039;-73
2021/08/11 10:16:51;;;;;;;5.53;4.20;;;23.30;99.90;;;;;;4992865;28;20113;-73
2021/08/11 10:19:16;;;;;;;7.40;3.80;;;23.40;99.90;;;;;;4992832;28;20077;-73
2021/08/11 10:22:01;;;;;;;9.32;4.25;;;23.20;99.90;;;;;;4992720;28;20097;-73
2021/08/11 10:24:29;;;;;;;5.68;3.60;;;23.50;99.90;;;;;;4979967;28;20025;-73
2021/08/11 10:26:56;;;;;;;4.65;3.72;;;23.60;99.90;;;;;;4992693;28;20092;-73
2021/08/11 10:29:24;;;;;;;5.68;4.00;;;23.50;99.90;;;;;;4992815;28;20026;-73
2021/08/11 10:31:49;;;;;;;6.97;3.70;;;23.90;99.90;;;;;;4992597;28;20029;-73
2021/08/11 10:34:18;;;;;;;3.88;3.47;;;23.50;99.90;;;;;;4992442;28;20031;-73
2021/08/11 10:36:45;;;;;;;4.63;3.50;;;23.40;99.90;;;;;;4992494;28;20133;-73
2021/08/11 10:39:14;;;;;;;5.28;3.60;;;23.20;99.90;;;;;;4992722;28;20385;-73
2021/08/11 10:41:39;;;;;;;4.88;4.07;;;22.90;99.90;;;;;;4991089;28;20539;-73
2021/08/11 10:44:14;;;;;;;5.20;3.92;;;22.80;99.90;;;;;;4992204;28;20053;-73
2021/08/11 10:46:46;;;;;;;5.87;4.13;;;23.30;99.90;;;;;;4991999;28;20674;-73
2021/08/11 10:49:18;;;;;;;6.35;3.60;;;24.10;99.90;;;;;;4992406;28;20019;-73
2021/08/11 10:51:46;;;;;;;3.95;3.00;;;24.60;99.90;;;;;;4992362;28;20022;-73
2021/08/11 10:54:13;;;;;;;5.43;2.92;;;24.90;99.90;;;;;;4992347;28;20508;-73
2021/08/11 10:56:50;;;;;;;4.50;2.47;;;24.50;99.90;;;;;;4991800;28;20030;-73
2021/08/11 10:59:22;;;;;;;3.78;3.00;;;24.90;99.90;;;;;;4992326;28;20485;-73
2021/08/11 11:01:55;;;;;;;3.40;2.80;;;24.60;99.90;;;;;;4992408;28;20037;-72
2021/08/11 11:04:51;;;;;;;5.13;2.80;;;24.80;99.90;;;;;;4992116;28;20084;-73
2021/08/11 11:07:18;;;;;;;4.05;2.85;;;24.60;99.90;;;;;;4992035;28;20088;-73
2021/08/11 11:09:44;;;;;;;4.65;2.85;;;24.30;99.90;;;;;;4992369;28;20572;-73
2021/08/11 11:12:19;;;;;;;4.40;3.35;;;24.30;99.90;;;;;;4990967;28;20022;-73
2021/08/11 11:14:53;;;;;;;5.47;2.95;;;23.90;99.90;;;;;;4992000;28;20073;-73
2021/08/11 11:17:20;;;;;;;5.43;3.17;;;23.40;99.90;;;;;;4992098;28;20022;-73
2021/08/11 11:20:04;;;;;;;3.50;3.08;;;23.60;99.90;;;;;;4992797;28;20022;-73
2021/08/11 11:22:41;;;;;;;6.78;3.38;;;23.40;99.90;;;;;;4991810;28;20080;-73
2021/08/11 11:25:13;;;;;;;4.90;3.17;;;23.40;99.90;;;;;;4991957;28;20559;-73
2021/08/11 11:27:42;;;;;;;4.40;2.80;;;23.30;99.90;;;;;;4990776;28;20100;-73
2021/08/11 11:30:09;;;;;;;4.70;3.25;;;23.50;99.90;;;;;;4992109;28;20046;-73
2021/08/11 11:32:36;;;;;;;6.68;3.40;;;23.60;99.90;;;;;;4991882;28;20489;-73
2021/08/11 11:35:22;;;;;;;4.13;3.08;;;23.60;99.90;;;;;;4991862;28;20041;-73
2021/08/11 11:38:07;;;;;;;4.88;3.28;;;24.30;99.90;;;;;;4992059;28;20034;-73
2021/08/11 11:40:55;;;;;;;5.18;3.13;;;24.60;99.90;;;;;;4991894;28;20061;-73
2021/08/11 11:43:29;;;;;;;4.13;2.88;;;24.70;99.90;;;;;;4991667;28;20034;-73
2021/08/11 11:45:56;;;;;;;4.78;3.17;;;25.10;99.90;;;;;;4991768;28;20027;-73
2021/08/11 11:48:22;;;;;;;3.60;3.08;;;25.10;99.90;;;;;;4991872;28;20033;-73
2021/08/11 11:50:50;;;;;;;4.40;3.08;;;25.30;99.90;;;;;;4991729;28;20061;-73
2021/08/11 11:53:24;;;;;;;5.88;2.90;;;24.40;99.90;;;;;;4991693;28;20018;-73
2021/08/11 11:55:51;;;;;;;3.90;3.03;;;24.10;99.90;;;;;;4991733;28;20485;-73
2021/08/11 11:58:22;;;;;;;2.90;2.60;;;23.90;99.90;;;;;;4991813;28;20448;-73
2021/08/11 12:00:56;;;;;;;5.53;3.03;;;24.30;99.90;;;;;;4991864;28;20028;-73
2021/08/11 12:03:36;;;;;;;5.97;2.92;;;25.10;99.90;;;;;;4991830;28;20029;-73
2021/08/11 12:06:02;;;;;;;4.03;2.90;;;24.70;99.90;;;;;;4991933;28;20069;-73
2021/08/11 12:08:27;;;;;;;4.20;2.60;;;24.80;99.90;;;;;;4992744;28;20461;-73
2021/08/11 12:11:12;;;;;;;4.47;2.63;;;25.00;99.90;;;;;;4995206;28;20027;-73
2021/08/11 12:13:46;;;;;;;2.65;2.25;;;24.90;99.90;;;;;;4995249;28;20022;-73
2021/08/11 12:16:14;;;;;;;3.25;2.83;;;24.80;99.90;;;;;;4994932;28;20053;-73
2021/08/11 12:18:42;;;;;;;4.50;3.15;;;25.30;99.90;;;;;;4995169;28;20081;-73
2021/08/11 12:21:08;;;;;;;3.35;2.53;;;24.90;99.90;;;;;;4994845;28;20018;-73
2021/08/11 12:23:34;;;;;;;3.75;2.90;;;25.10;99.90;;;;;;4994987;28;20109;-73
2021/08/11 12:26:06;;;;;;;3.22;2.72;;;25.50;99.90;;;;;;4981813;28;20057;-73
2021/08/11 12:28:37;;;;;;;3.25;2.90;;;25.70;99.90;;;;;;4994838;28;20034;-73
2021/08/11 12:31:24;;;;;;;4.90;2.65;;;26.30;99.90;;;;;;4994854;28;20381;-73
2021/08/11 12:33:52;;;;;;;6.13;2.75;;;26.60;99.90;;;;;;4993553;28;20022;-73
2021/08/11 12:36:23;;;;;;;4.97;2.70;;;26.80;99.90;;;;;;4994729;28;20026;-73
2021/08/11 12:39:04;;;;;;;3.10;2.78;;;27.10;99.90;;;;;;4994768;28;20030;-73
2021/08/11 12:41:36;;;;;;;3.22;2.70;;;27.40;99.90;;;;;;4994586;28;20093;-73
2021/08/11 12:44:23;;;;;;;3.72;2.80;;;26.90;99.90;;;;;;4994742;28;20030;-73
2021/08/11 12:46:54;;;;;;;3.88;2.70;;;26.30;99.90;;;;;;4994379;28;20023;-73
2021/08/11 12:49:35;;;;;;;3.55;2.75;;;26.20;99.90;;;;;;4994934;28;20031;-73
2021/08/11 12:52:03;;;;;;;3.00;2.40;;;26.00;99.90;;;;;;5014141;28;20022;-73